Time;durP1;ratioP1;P1;durP2;ratioP2;P2;SDS_P1;SDS_P2;PMS_P1;PMS_P2;Temp;Humidity;BMP_temperature;BMP_pressure;BME280_temperature;BME280_humidity;BME280_pressure;Samples;Min_cycle;Max_cycle;Signal;HPM_P1;HPM_P2
2022/12/26 00:01:24;;;;;;;;;;;11.40;99.90;;;;;;4992381;28;19914;-68
2022/12/26 00:03:50;;;;;;;;;;;11.50;99.90;;;;;;4979222;28;19910;-66
2022/12/26 00:06:19;;;;;;;;;;;11.50;99.90;;;;;;4991660;28;19910;-66
2022/12/26 00:08:45;;;;;;;;;;;11.50;99.90;;;;;;4991584;28;20358;-66
2022/12/26 00:11:11;;;;;;;;;;;11.50;99.90;;;;;;5005990;28;19966;-67
2022/12/26 00:13:36;;;;;;;;;;;11.40;99.90;;;;;;5011471;28;20322;-69
2022/12/26 00:16:09;;;;;;;;;;;11.50;99.90;;;;;;4991919;28;19914;-66
2022/12/26 00:18:36;;;;;;;;;;;11.50;99.90;;;;;;5023659;28;19913;-66
2022/12/26 00:21:02;;;;;;;;;;;11.40;99.90;;;;;;4993213;28;20432;-67
2022/12/26 00:23:28;;;;;;;;;;;11.50;99.90;;;;;;4992813;28;19949;-68
2022/12/26 00:25:53;;;;;;;;;;;11.40;99.90;;;;;;5010858;28;19918;-67
2022/12/26 00:28:19;;;;;;;;;;;11.50;99.90;;;;;;5011671;28;19921;-67
2022/12/26 00:30:44;;;;;;;;;;;11.50;99.90;;;;;;5010925;28;19913;-67
2022/12/26 00:33:10;;;;;;;;;;;11.40;99.90;;;;;;5020490;28;19913;-67
2022/12/26 00:35:35;;;;;;;;;;;11.40;99.90;;;;;;5006735;28;20176;-68
2022/12/26 00:38:01;;;;;;;;;;;11.40;99.90;;;;;;5005511;28;20021;-67
2022/12/26 00:40:26;;;;;;;;;;;11.40;99.90;;;;;;5007662;28;19913;-67
2022/12/26 00:42:52;;;;;;;;;;;11.30;99.90;;;;;;5007570;28;20399;-66
2022/12/26 00:45:18;;;;;;;;;;;11.30;99.90;;;;;;5009053;28;19914;-67
2022/12/26 00:47:43;;;;;;;;;;;11.30;99.90;;;;;;5003546;28;19939;-66
2022/12/26 00:50:09;;;;;;;;;;;11.30;99.90;;;;;;5000632;28;20346;-68
2022/12/26 00:52:34;;;;;;;;;;;11.30;99.90;;;;;;4994760;28;20436;-68
2022/12/26 00:55:00;;;;;;;;;;;11.20;99.90;;;;;;4982736;28;19913;-65
2022/12/26 00:57:25;;;;;;;;;;;11.20;99.90;;;;;;4994541;28;20208;-65
2022/12/26 00:59:51;;;;;;;;;;;11.20;99.90;;;;;;4997596;28;19922;-65
2022/12/26 01:05:00;;;;;;;;;;;11.20;99.90;;;;;;4991768;28;20296;-68
2022/12/26 01:07:26;;;;;;;;;;;11.10;99.90;;;;;;4993731;28;19918;-66
2022/12/26 01:09:51;;;;;;;;;;;11.20;99.90;;;;;;4996702;28;20343;-66
2022/12/26 01:12:17;;;;;;;;;;;11.10;99.90;;;;;;4994906;28;19987;-68
2022/12/26 01:14:43;;;;;;;;;;;11.20;99.90;;;;;;4995167;28;19972;-65
2022/12/26 01:17:08;;;;;;;;;;;11.20;99.90;;;;;;4997803;28;19913;-66
2022/12/26 01:19:34;;;;;;;;;;;11.30;99.90;;;;;;5003274;28;20357;-66
2022/12/26 01:21:59;;;;;;;;;;;11.30;99.90;;;;;;4997414;28;19913;-67
2022/12/26 01:24:25;;;;;;;;;;;11.30;99.90;;;;;;5008551;28;20000;-66
2022/12/26 01:26:50;;;;;;;;;;;11.30;99.90;;;;;;5006154;28;19929;-66
2022/12/26 01:29:16;;;;;;;;;;;11.30;99.90;;;;;;5007189;28;19921;-68
2022/12/26 01:31:41;;;;;;;;;;;11.20;99.90;;;;;;5009764;28;19910;-67
2022/12/26 01:34:07;;;;;;;;;;;11.20;99.90;;;;;;5008837;28;19922;-66
2022/12/26 01:36:33;;;;;;;;;;;11.30;99.90;;;;;;5008009;28;19929;-66
2022/12/26 01:38:58;;;;;;;;;;;11.30;99.90;;;;;;5004047;28;19917;-67
2022/12/26 01:41:24;;;;;;;;;;;11.20;99.90;;;;;;4999536;28;19960;-67
2022/12/26 01:43:49;;;;;;;;;;;11.30;99.90;;;;;;5004123;28;19913;-67
2022/12/26 01:46:15;;;;;;;;;;;11.30;99.90;;;;;;5009449;28;19943;-65
2022/12/26 01:48:41;;;;;;;;;;;11.30;99.90;;;;;;5008891;28;19913;-67
2022/12/26 01:51:07;;;;;;;;;;;11.20;99.90;;;;;;4971416;28;19968;-66
2022/12/26 01:53:35;;;;;;;;;;;11.20;99.90;;;;;;5007925;28;20329;-66
2022/12/26 01:56:03;;;;;;;;;;;11.20;99.90;;;;;;5008065;28;19910;-66
2022/12/26 01:58:34;;;;;;;;;;;11.10;99.90;;;;;;4994838;28;19971;-67
2022/12/26 02:01:01;;;;;;;;;;;11.20;99.90;;;;;;4995800;28;19941;-67
2022/12/26 02:06:12;;;;;;;;;;;11.20;99.90;;;;;;5008616;28;19968;-67
2022/12/26 02:08:38;;;;;;;;;;;11.20;99.90;;;;;;5003916;28;20428;-65
2022/12/26 02:11:07;;;;;;;;;;;11.20;99.90;;;;;;5009983;28;20355;-64
2022/12/26 02:13:34;;;;;;;;;;;11.20;99.90;;;;;;4999610;28;19932;-67
2022/12/26 02:16:00;;;;;;;;;;;11.30;99.90;;;;;;4998447;28;20003;-67
2022/12/26 02:18:26;;;;;;;;;;;11.30;99.90;;;;;;5006615;28;19914;-66
2022/12/26 02:21:05;;;;;;;;;;;11.30;99.90;;;;;;5010096;28;20567;-66
2022/12/26 02:23:31;;;;;;;;;;;11.30;99.90;;;;;;5017351;28;19910;-67
2022/12/26 02:26:15;;;;;;;;;;;11.20;99.90;;;;;;5022829;28;19928;-67
2022/12/26 02:28:46;;;;;;;;;;;11.20;99.90;;;;;;5010433;28;19922;-67
2022/12/26 02:31:15;;;;;;;;;;;11.20;99.90;;;;;;5001477;28;19960;-67
2022/12/26 02:34:07;;;;;;;;;;;11.20;99.90;;;;;;5009200;28;19921;-68
2022/12/26 02:36:35;;;;;;;;;;;11.20;99.90;;;;;;4966790;28;19993;-67
2022/12/26 02:39:19;;;;;;;;;;;11.20;99.90;;;;;;4994538;28;19920;-65
2022/12/26 02:41:54;;;;;;;;;;;11.20;99.90;;;;;;5010466;28;19917;-66
2022/12/26 02:47:14;;;;;;;;;;;11.20;99.90;;;;;;5004562;28;20399;-66
2022/12/26 03:15:26;;;;;;;;;;;11.20;99.90;;;;;;5010812;28;19932;-67
2022/12/26 03:17:57;;;;;;;;;;;11.20;99.90;;;;;;5010663;28;19928;-67
2022/12/26 03:20:27;;;;;;;;;;;11.20;99.90;;;;;;5010691;28;19913;-67
2022/12/26 03:22:52;;;;;;;;;;;11.30;99.90;;;;;;4998680;28;19945;-66
2022/12/26 03:28:22;;;;;;;;;;;11.30;99.90;;;;;;5003281;28;19920;-66
2022/12/26 03:30:50;;;;;;;;;;;11.30;99.90;;;;;;5011324;28;20015;-67
2022/12/26 03:36:14;;;;;;;;;;;11.20;99.90;;;;;;5009379;28;19920;-68
2022/12/26 03:38:50;;;;;;;;;;;11.20;99.90;;;;;;5008367;28;19914;-67
2022/12/26 04:19:24;;;;;;;;;;;11.10;99.90;;;;;;4997377;28;20001;-65
2022/12/26 04:44:23;;;;;;;;;;;11.20;99.90;;;;;;4996061;28;19932;-66
2022/12/26 04:46:49;;;;;;;;;;;11.10;99.90;;;;;;4992674;28;20400;-65
2022/12/26 04:52:02;;;;;;;;;;;11.10;99.90;;;;;;4997537;28;20357;-65
2022/12/26 04:54:28;;;;;;;;;;;11.20;99.90;;;;;;5008672;28;20403;-66
2022/12/26 04:56:53;;;;;;;;;;;11.20;99.90;;;;;;5009719;28;19937;-68
2022/12/26 04:59:19;;;;;;;;;;;11.20;99.90;;;;;;5011084;28;19932;-68
2022/12/26 05:10:03;;;;;;;;;;;11.20;99.90;;;;;;4992923;28;20391;-66
2022/12/26 05:12:28;;;;;;;;;;;11.20;99.90;;;;;;4995342;28;20331;-66
2022/12/26 05:14:54;;;;;;;;;;;11.20;99.90;;;;;;4986814;28;19952;-68
2022/12/26 05:31:04;;;;;;;;;;;11.30;99.90;;;;;;4990498;28;19935;-68
2022/12/26 05:36:14;;;;;;;;;;;11.30;99.90;;;;;;4990696;28;19980;-67
2022/12/26 05:38:40;;;;;;;;;;;11.30;99.90;;;;;;4994740;28;20009;-66
2022/12/26 05:41:06;;;;;;;;;;;11.30;99.90;;;;;;4994900;28;20036;-65
2022/12/26 05:43:31;;;;;;;;;;;11.30;99.90;;;;;;4995782;28;20010;-68
2022/12/26 05:45:57;;;;;;;;;;;11.30;99.90;;;;;;4995921;28;19914;-67
2022/12/26 05:48:22;;;;;;;;;;;11.20;99.90;;;;;;4994443;28;19980;-67
2022/12/26 05:50:48;;;;;;;;;;;11.20;99.90;;;;;;4993058;28;20004;-67
2022/12/26 05:53:13;;;;;;;;;;;11.20;99.90;;;;;;4996454;28;20024;-67
2022/12/26 05:55:40;;;;;;;;;;;11.20;99.90;;;;;;5007118;28;19925;-67
2022/12/26 05:58:05;;;;;;;;;;;11.20;99.90;;;;;;5002313;28;20357;-67
2022/12/26 06:00:31;;;;;;;;;;;11.20;99.90;;;;;;4994873;28;20024;-67
2022/12/26 06:03:00;;;;;;;;;;;11.10;99.90;;;;;;4995361;28;20369;-64
2022/12/26 06:05:26;;;;;;;;;;;11.20;99.90;;;;;;4995747;28;19960;-66
2022/12/26 06:07:52;;;;;;;;;;;11.20;99.90;;;;;;4994633;28;20012;-66
2022/12/26 06:10:18;;;;;;;;;;;11.20;99.90;;;;;;4992590;28;20013;-66
2022/12/26 06:12:44;;;;;;;;;;;11.20;99.90;;;;;;4996116;28;19921;-68
2022/12/26 06:15:09;;;;;;;;;;;11.20;99.90;;;;;;5001307;28;19914;-68
2022/12/26 06:17:35;;;;;;;;;;;11.20;99.90;;;;;;5006481;28;19914;-66
2022/12/26 06:20:00;;;;;;;;;;;11.10;99.90;;;;;;5014020;28;19939;-68
2022/12/26 06:22:29;;;;;;;;;;;11.20;99.90;;;;;;5013410;28;19921;-67
2022/12/26 06:24:54;;;;;;;;;;;11.20;99.90;;;;;;5008766;28;19914;-68
2022/12/26 06:27:20;;;;;;;;;;;11.20;99.90;;;;;;5010614;28;19922;-68
2022/12/26 06:29:46;;;;;;;;;;;11.10;99.90;;;;;;4998280;28;19984;-67
2022/12/26 06:32:11;;;;;;;;;;;11.20;99.90;;;;;;4998142;28;19972;-66
2022/12/26 06:34:37;;;;;;;;;;;11.30;99.90;;;;;;4998537;28;20609;-67
2022/12/26 06:37:02;;;;;;;;;;;11.30;99.90;;;;;;4998813;28;19921;-67
2022/12/26 06:39:28;;;;;;;;;;;11.30;99.90;;;;;;5008619;28;20024;-66
2022/12/26 06:41:54;;;;;;;;;;;11.20;99.90;;;;;;4999735;28;20332;-66
2022/12/26 06:44:19;;;;;;;;;;;11.20;99.90;;;;;;4998238;28;20269;-67
2022/12/26 06:46:45;;;;;;;;;;;11.20;99.90;;;;;;4999182;28;19914;-68
2022/12/26 06:49:10;;;;;;;;;;;11.20;99.90;;;;;;4998601;28;20405;-68
2022/12/26 06:51:36;;;;;;;;;;;11.30;99.90;;;;;;4997976;28;19940;-67
2022/12/26 06:54:02;;;;;;;;;;;11.30;99.90;;;;;;4997597;28;19921;-67
2022/12/26 06:56:28;;;;;;;;;;;11.40;99.90;;;;;;4998600;28;19922;-67
2022/12/26 06:59:00;;;;;;;;;;;11.40;99.90;;;;;;4998768;28;19917;-67
2022/12/26 07:01:27;;;;;;;;;;;11.40;99.90;;;;;;4995293;28;20369;-67
2022/12/26 07:03:53;;;;;;;;;;;11.40;99.90;;;;;;4995867;28;19922;-67
2022/12/26 07:06:35;;;;;;;;;;;11.30;99.90;;;;;;4997115;28;20480;-67
2022/12/26 07:09:09;;;;;;;;;;;11.30;99.90;;;;;;4996279;28;19913;-67
2022/12/26 07:11:36;;;;;;;;;;;11.30;99.90;;;;;;4998998;28;20298;-66
2022/12/26 07:14:02;;;;;;;;;;;11.30;99.90;;;;;;4997133;28;20253;-67
2022/12/26 07:16:27;;;;;;;;;;;11.20;99.90;;;;;;4996145;28;19976;-69
2022/12/26 07:18:54;;;;;;;;;;;11.20;99.90;;;;;;4983448;28;19914;-67
2022/12/26 07:21:20;;;;;;;;;;;11.20;99.90;;;;;;4997681;28;20020;-67
2022/12/26 07:23:46;;;;;;;;;;;11.30;99.90;;;;;;4997732;28;19957;-67
2022/12/26 07:26:11;;;;;;;;;;;11.20;99.90;;;;;;4996111;28;19949;-66
2022/12/26 07:28:37;;;;;;;;;;;11.20;99.90;;;;;;5011435;28;19963;-67
2022/12/26 07:31:03;;;;;;;;;;;11.20;99.90;;;;;;5010736;28;20344;-67
2022/12/26 07:33:29;;;;;;;;;;;11.30;99.90;;;;;;5008407;28;19930;-67
2022/12/26 07:36:05;;;;;;;;;;;11.30;99.90;;;;;;4997885;28;19917;-66
2022/12/26 07:38:33;;;;;;;;;;;11.30;99.90;;;;;;4995208;28;19921;-66
2022/12/26 07:41:56;;;;;;;;;;;11.20;99.90;;;;;;4994528;28;19917;-68
2022/12/26 07:43:44;;;;;;;;;;;11.20;99.90;;;;;;4995559;28;19913;-67
2022/12/26 07:46:10;;;;;;;;;;;11.20;99.90;;;;;;4996055;28;20353;-66
2022/12/26 07:48:35;;;;;;;;;;;11.20;99.90;;;;;;4998118;28;19917;-67
2022/12/26 07:51:01;;;;;;;;;;;11.20;99.90;;;;;;4997032;28;19980;-68
2022/12/26 07:53:26;;;;;;;;;;;11.20;99.90;;;;;;5000173;28;20016;-67
2022/12/26 07:55:52;;;;;;;;;;;11.30;99.90;;;;;;4995775;28;19932;-66
2022/12/26 07:58:18;;;;;;;;;;;11.30;99.90;;;;;;4996447;28;19917;-66
2022/12/26 08:00:43;;;;;;;;;;;11.30;99.90;;;;;;4996429;28;19922;-66
2022/12/26 08:03:09;;;;;;;;;;;11.30;99.90;;;;;;4993935;28;20000;-66
2022/12/26 08:05:35;;;;;;;;;;;11.40;99.90;;;;;;4995651;28;19913;-67
2022/12/26 08:08:00;;;;;;;;;;;11.40;99.90;;;;;;4997449;28;20380;-67
2022/12/26 08:10:26;;;;;;;;;;;11.40;99.90;;;;;;4997882;28;19971;-67
2022/12/26 08:12:51;;;;;;;;;;;11.40;99.90;;;;;;4997275;28;19921;-67
2022/12/26 08:15:17;;;;;;;;;;;11.40;99.90;;;;;;4995718;28;20427;-66
2022/12/26 08:17:43;;;;;;;;;;;11.40;99.90;;;;;;4995613;28;19928;-67
2022/12/26 08:20:08;;;;;;;;;;;11.50;99.90;;;;;;4996423;28;20055;-68
2022/12/26 08:22:34;;;;;;;;;;;11.40;99.90;;;;;;4996038;28;20297;-67
2022/12/26 08:24:59;;;;;;;;;;;11.50;99.90;;;;;;4994109;28;19928;-67
2022/12/26 08:27:25;;;;;;;;;;;11.50;99.90;;;;;;4995403;28;20481;-67
2022/12/26 08:29:51;;;;;;;;;;;11.40;99.90;;;;;;4996161;28;20083;-67
2022/12/26 08:32:16;;;;;;;;;;;11.40;99.90;;;;;;4992098;28;19929;-66
2022/12/26 08:34:42;;;;;;;;;;;11.40;99.90;;;;;;5001840;28;20546;-67
2022/12/26 08:37:07;;;;;;;;;;;11.40;99.90;;;;;;5002585;28;20313;-68
2022/12/26 08:39:33;;;;;;;;;;;11.40;99.90;;;;;;5000136;28;19923;-67
2022/12/26 08:41:58;;;;;;;;;;;11.40;99.90;;;;;;4994780;28;20015;-68
2022/12/26 08:44:24;;;;;;;;;;;11.30;99.90;;;;;;4996861;28;19968;-69
2022/12/26 08:46:49;;;;;;;;;;;11.40;99.90;;;;;;4994791;28;19914;-66
2022/12/26 08:49:15;;;;;;;;;;;11.50;99.90;;;;;;4995681;28;20401;-66
2022/12/26 08:51:41;;;;;;;;;;;11.40;99.90;;;;;;4993933;28;19917;-66
2022/12/26 08:54:07;;;;;;;;;;;11.50;99.90;;;;;;4996229;28;19924;-66
2022/12/26 08:56:33;;;;;;;;;;;11.50;99.90;;;;;;5004075;28;21717;-67
2022/12/26 08:58:58;;;;;;;;;;;11.40;99.90;;;;;;4996045;28;19917;-66
2022/12/26 09:01:25;;;;;;;;;;;11.30;99.90;;;;;;4999672;28;19983;-68
2022/12/26 09:03:52;;;;;;;;;;;11.30;99.90;;;;;;5008109;28;20352;-68
2022/12/26 09:06:18;;;;;;;;;;;11.40;99.90;;;;;;5005020;28;19944;-68
2022/12/26 09:08:44;;;;;;;;;;;11.50;99.90;;;;;;5009057;28;19914;-67
2022/12/26 09:11:14;;;;;;;;;;;11.50;99.90;;;;;;5009216;28;20269;-67
2022/12/26 09:13:40;;;;;;;;;;;11.50;99.90;;;;;;5008788;28;19991;-67
2022/12/26 09:16:14;;;;;;;;;;;11.50;99.90;;;;;;5004790;28;19917;-67
2022/12/26 09:18:39;;;;;;;;;;;11.40;99.90;;;;;;5007102;28;20321;-68
2022/12/26 09:21:07;;;;;;;;;;;11.50;99.90;;;;;;5008925;28;20028;-67
2022/12/26 09:23:34;;;;;;;;;;;11.50;99.90;;;;;;4999908;28;19914;-70
2022/12/26 09:26:06;;;;;;;;;;;11.60;99.90;;;;;;4994555;28;19921;-66
2022/12/26 09:28:32;;;;;;;;;;;11.70;99.90;;;;;;4994837;28;19949;-69
2022/12/26 09:31:01;;;;;;;;;;;11.70;99.90;;;;;;5009959;28;20359;-67
2022/12/26 09:33:27;;;;;;;;;;;11.80;99.90;;;;;;5011167;28;19913;-69
2022/12/26 09:35:53;;;;;;;;;;;11.90;99.90;;;;;;5004613;28;19913;-67
2022/12/26 09:38:19;;;;;;;;;;;12.00;99.90;;;;;;4994175;28;19925;-67
2022/12/26 09:41:04;;;;;;;;;;;12.00;99.90;;;;;;4994367;28;20370;-69
2022/12/26 09:43:49;;;;;;;;;;;12.10;99.90;;;;;;4993993;28;19956;-66
2022/12/26 09:46:23;;;;;;;;;;;12.10;99.90;;;;;;4993325;28;20348;-68
2022/12/26 09:48:53;;;;;;;;;;;12.20;99.90;;;;;;4997926;28;19917;-66
2022/12/26 09:51:19;;;;;;;;;;;12.20;99.90;;;;;;4995171;28;19924;-68
2022/12/26 09:53:46;;;;;;;;;;;12.20;99.90;;;;;;4981465;28;19913;-67
2022/12/26 09:56:16;;;;;;;;;;;12.30;99.90;;;;;;4993906;28;19960;-67
2022/12/26 09:58:41;;;;;;;;;;;12.30;99.90;;;;;;4993357;28;19925;-67
2022/12/26 10:01:14;;;;;;;;;;;12.30;99.90;;;;;;4996516;28;19917;-67
2022/12/26 10:03:42;;;;;;;;;;;12.40;99.90;;;;;;4995159;28;19928;-67
2022/12/26 10:06:10;;;;;;;;;;;12.30;99.90;;;;;;4987815;28;20297;-65
2022/12/26 10:08:39;;;;;;;;;;;12.30;99.90;;;;;;5010343;28;20305;-65
2022/12/26 10:11:06;;;;;;;;;;;12.30;99.90;;;;;;5013221;28;19917;-65
2022/12/26 10:13:58;;;;;;;;;;;12.20;99.90;;;;;;5011048;28;19984;-64
2022/12/26 10:16:42;;;;;;;;;;;12.10;99.90;;;;;;5003458;28;19914;-64
2022/12/26 10:19:28;;;;;;;;;;;12.10;99.90;;;;;;4989991;28;19927;-63
2022/12/26 10:21:57;;;;;;;;;;;12.00;99.90;;;;;;4997688;28;20000;-64
2022/12/26 10:24:24;;;;;;;;;;;12.00;99.90;;;;;;5000347;28;20344;-66
2022/12/26 10:26:52;;;;;;;;;;;12.00;99.90;;;;;;5007419;28;19917;-65
2022/12/26 10:29:24;;;;;;;;;;;12.00;99.90;;;;;;4999055;28;19914;-66
2022/12/26 10:31:53;;;;;;;;;;;11.90;99.90;;;;;;4996611;28;20321;-68
2022/12/26 10:34:25;;;;;;;;;;;11.90;99.90;;;;;;4998130;28;19928;-65
2022/12/26 10:36:53;;;;;;;;;;;11.90;99.90;;;;;;5002014;28;19929;-62
2022/12/26 10:39:27;;;;;;;;;;;11.80;99.90;;;;;;4985451;28;19921;-66
2022/12/26 10:41:56;;;;;;;;;;;11.80;99.90;;;;;;4993969;28;19914;-68
2022/12/26 10:44:21;;;;;;;;;;;11.80;99.90;;;;;;4992366;28;19922;-64
2022/12/26 10:46:47;;;;;;;;;;;11.80;99.90;;;;;;4990177;28;19918;-67
2022/12/26 10:49:15;;;;;;;;;;;11.80;99.90;;;;;;4994212;28;19981;-60
2022/12/26 10:51:40;;;;;;;;;;;11.90;99.90;;;;;;4995461;28;19968;-63
2022/12/26 10:54:16;;;;;;;;;;;12.00;99.90;;;;;;4993866;28;19914;-61
2022/12/26 10:56:43;;;;;;;;;;;12.00;99.90;;;;;;4993601;28;19914;-61
2022/12/26 10:59:12;;;;;;;;;;;12.00;99.90;;;;;;4994400;28;19921;-64
2022/12/26 11:01:38;;;;;;;;;;;12.00;99.90;;;;;;4993293;28;20312;-65
2022/12/26 11:04:06;;;;;;;;;;;11.90;99.90;;;;;;5001840;28;20344;-63
2022/12/26 11:06:42;;;;;;;;;;;12.00;99.90;;;;;;5008098;28;19989;-66
2022/12/26 11:09:21;;;;;;;;;;;12.10;99.90;;;;;;5001313;28;19918;-65
2022/12/26 11:11:48;;;;;;;;;;;12.00;99.90;;;;;;5008343;28;19917;-63
2022/12/26 11:14:22;;;;;;;;;;;12.00;99.90;;;;;;5009150;28;19917;-64
2022/12/26 11:16:48;;;;;;;;;;;12.00;99.90;;;;;;5005938;28;19913;-64
2022/12/26 11:19:27;;;;;;;;;;;12.00;99.90;;;;;;4996987;28;20464;-65
2022/12/26 11:21:53;;;;;;;;;;;12.00;99.90;;;;;;5007842;28;19932;-61
2022/12/26 11:24:19;;;;;;;;;;;11.90;99.90;;;;;;5005754;28;19914;-58
2022/12/26 11:26:45;;;;;;;;;;;11.90;99.90;;;;;;5005474;28;19925;-57
2022/12/26 11:29:15;;;;;;;;;;;11.80;99.90;;;;;;5007268;28;20012;-65
2022/12/26 11:31:42;;;;;;;;;;;11.80;99.90;;;;;;5021546;28;19916;-65
2022/12/26 11:34:09;;;;;;;;;;;11.90;99.90;;;;;;5025092;28;19963;-64
2022/12/26 11:36:35;;;;;;;;;;;12.00;99.90;;;;;;5000131;28;19956;-66
2022/12/26 11:39:02;;;;;;;;;;;12.00;99.90;;;;;;5011170;28;19996;-67
2022/12/26 11:41:30;;;;;;;;;;;11.90;99.90;;;;;;5003118;28;20016;-65
2022/12/26 11:43:58;;;;;;;;;;;11.90;99.90;;;;;;5003630;28;19968;-66
2022/12/26 11:46:53;;;;;;;;;;;11.90;99.90;;;;;;5011552;28;20273;-67
2022/12/26 11:49:24;;;;;;;;;;;11.80;99.90;;;;;;4979283;28;19972;-68
2022/12/26 11:51:50;;;;;;;;;;;11.80;99.90;;;;;;5006437;28;20340;-67
2022/12/26 11:54:23;;;;;;;;;;;11.70;99.90;;;;;;5017710;28;19913;-66
2022/12/26 11:56:58;;;;;;;;;;;11.70;99.90;;;;;;5006516;28;20301;-67
2022/12/26 11:59:24;;;;;;;;;;;11.70;99.90;;;;;;5007225;28;20409;-67
2022/12/26 12:02:09;;;;;;;;;;;11.70;99.90;;;;;;5006713;28;19987;-68
2022/12/26 12:04:35;;;;;;;;;;;11.70;99.90;;;;;;5005072;28;19964;-66
2022/12/26 12:07:08;;;;;;;;;;;11.70;99.90;;;;;;5006598;28;20529;-66
2022/12/26 12:09:39;;;;;;;;;;;11.70;99.90;;;;;;5010353;28;19918;-67
2022/12/26 12:12:11;;;;;;;;;;;11.70;99.90;;;;;;5006986;28;19913;-67
2022/12/26 12:14:43;;;;;;;;;;;11.70;99.90;;;;;;5016917;28;19917;-67
2022/12/26 12:17:20;;;;;;;;;;;11.60;99.90;;;;;;5004975;28;20297;-67
2022/12/26 12:19:52;;;;;;;;;;;11.70;99.90;;;;;;5007316;28;19917;-68
2022/12/26 12:22:18;;;;;;;;;;;11.70;99.90;;;;;;5001263;28;19913;-69
2022/12/26 12:24:54;;;;;;;;;;;11.60;99.90;;;;;;4999574;28;19936;-67
2022/12/26 12:27:36;;;;;;;;;;;11.60;99.90;;;;;;5010574;28;19909;-67
2022/12/26 12:30:02;;;;;;;;;;;11.70;99.90;;;;;;5011964;28;20046;-66
2022/12/26 12:32:27;;;;;;;;;;;11.70;99.90;;;;;;5014952;28;19996;-69
2022/12/26 12:35:06;;;;;;;;;;;11.70;99.90;;;;;;4986996;28;19955;-66
2022/12/26 12:37:31;;;;;;;;;;;11.60;99.90;;;;;;5005720;28;19932;-67
2022/12/26 12:40:00;;;;;;;;;;;11.70;99.90;;;;;;5005192;28;19955;-67
2022/12/26 12:42:31;;;;;;;;;;;11.70;99.90;;;;;;5003718;28;19920;-65
2022/12/26 12:45:19;;;;;;;;;;;11.80;99.90;;;;;;5003126;28;19957;-66
2022/12/26 12:47:51;;;;;;;;;;;11.70;99.90;;;;;;5007191;28;19970;-67
2022/12/26 12:50:26;;;;;;;;;;;11.80;99.90;;;;;;4995473;28;20328;-67
2022/12/26 12:53:10;;;;;;;;;;;11.90;99.90;;;;;;5002625;28;19918;-66
2022/12/26 12:55:50;;;;;;;;;;;11.90;99.90;;;;;;5000676;28;19914;-66
2022/12/26 12:58:15;;;;;;;;;;;11.90;99.90;;;;;;5015121;28;20340;-67
2022/12/26 13:00:44;;;;;;;;;;;11.90;99.90;;;;;;5013756;28;19917;-66
2022/12/26 13:03:15;;;;;;;;;;;11.80;99.90;;;;;;5017954;28;19916;-67
2022/12/26 13:05:41;;;;;;;;;;;11.80;99.90;;;;;;4998498;28;20532;-67
2022/12/26 13:08:12;;;;;;;;;;;11.70;99.90;;;;;;5015088;28;19927;-67
2022/12/26 13:10:46;;;;;;;;;;;11.70;99.90;;;;;;5014827;28;20321;-67
2022/12/26 13:13:29;;;;;;;;;;;11.60;99.90;;;;;;5002223;28;20048;-67
2022/12/26 13:15:57;;;;;;;;;;;11.70;99.90;;;;;;5012394;28;19913;-67
2022/12/26 13:18:27;;;;;;;;;;;11.70;99.90;;;;;;4980520;28;20288;-67
2022/12/26 13:20:53;;;;;;;;;;;11.70;99.90;;;;;;5013168;28;19952;-67
2022/12/26 13:26:33;;;;;;;;;;;11.60;99.90;;;;;;5000073;28;19925;-68
2022/12/26 13:29:19;;;;;;;;;;;11.50;99.90;;;;;;5006786;28;20012;-66
2022/12/26 13:31:45;;;;;;;;;;;11.50;99.90;;;;;;5019008;28;19975;-68
2022/12/26 13:34:15;;;;;;;;;;;11.60;99.90;;;;;;5023721;28;19952;-67
2022/12/26 13:36:43;;;;;;;;;;;11.60;99.90;;;;;;5008260;28;19964;-67
2022/12/26 13:39:11;;;;;;;;;;;11.60;99.90;;;;;;5004951;28;19917;-68
2022/12/26 13:44:40;;;;;;;;;;;11.70;99.90;;;;;;4987031;28;20448;-69
2022/12/26 13:47:25;;;;;;;;;;;11.70;99.90;;;;;;5011491;28;19966;-67
2022/12/26 13:49:51;;;;;;;;;;;11.70;99.90;;;;;;5008073;28;19932;-67
2022/12/26 13:52:31;;;;;;;;;;;11.60;99.90;;;;;;5017952;28;19917;-67
2022/12/26 13:55:06;;;;;;;;;;;11.60;99.90;;;;;;5029693;28;20316;-68
2022/12/26 13:57:37;;;;;;;;;;;11.50;99.90;;;;;;5012930;28;20385;-68
2022/12/26 14:00:03;;;;;;;;;;;11.50;99.90;;;;;;5011500;28;19967;-67
2022/12/26 14:02:38;;;;;;;;;;;11.50;99.90;;;;;;5012909;28;20005;-66
2022/12/26 14:05:24;;;;;;;;;;;11.50;99.90;;;;;;5015998;28;19918;-67
2022/12/26 14:07:59;;;;;;;;;;;11.40;99.90;;;;;;4999609;28;19920;-67
2022/12/26 14:10:42;;;;;;;;;;;11.50;99.90;;;;;;5009553;28;19983;-67
2022/12/26 14:13:07;;;;;;;;;;;11.50;99.90;;;;;;5009571;28;19914;-66
2022/12/26 14:15:36;;;;;;;;;;;11.50;99.90;;;;;;5006675;28;19959;-66
2022/12/26 14:18:01;;;;;;;;;;;11.50;99.90;;;;;;5008082;28;20399;-66
2022/12/26 14:20:36;;;;;;;;;;;11.50;99.90;;;;;;5007317;28;19965;-66
2022/12/26 14:23:10;;;;;;;;;;;11.50;99.90;;;;;;5008038;28;20006;-67
2022/12/26 14:25:45;;;;;;;;;;;11.40;99.90;;;;;;5006908;28;19918;-68
2022/12/26 14:28:29;;;;;;;;;;;11.40;99.90;;;;;;5009471;28;20352;-68
2022/12/26 14:31:01;;;;;;;;;;;11.40;99.90;;;;;;5005994;28;19917;-67
2022/12/26 14:33:39;;;;;;;;;;;11.40;99.90;;;;;;5010397;28;20340;-68
2022/12/26 14:36:11;;;;;;;;;;;11.30;99.90;;;;;;5005007;28;20060;-66
2022/12/26 14:38:37;;;;;;;;;;;11.30;99.90;;;;;;5012486;28;20366;-67
2022/12/26 14:41:07;;;;;;;;;;;11.30;99.90;;;;;;5011365;28;19944;-67
2022/12/26 14:43:37;;;;;;;;;;;11.30;99.90;;;;;;5009268;28;19914;-67
2022/12/26 14:46:04;;;;;;;;;;;11.30;99.90;;;;;;5007364;28;19913;-66
2022/12/26 14:48:30;;;;;;;;;;;11.20;99.90;;;;;;5007476;28;20443;-68
2022/12/26 14:51:01;;;;;;;;;;;11.20;99.90;;;;;;5001606;28;19921;-67
2022/12/26 14:53:29;;;;;;;;;;;11.20;99.90;;;;;;5016812;28;19921;-68
2022/12/26 14:55:55;;;;;;;;;;;11.20;99.90;;;;;;5015585;28;20301;-66
2022/12/26 14:58:27;;;;;;;;;;;11.20;99.90;;;;;;5004353;28;19909;-66
2022/12/26 15:00:53;;;;;;;;;;;11.20;99.90;;;;;;5009359;28;19913;-66
2022/12/26 15:03:24;;;;;;;;;;;11.20;99.90;;;;;;4989268;28;19917;-67
2022/12/26 15:05:51;;;;;;;;;;;11.20;99.90;;;;;;5013786;28;19909;-66
2022/12/26 15:08:35;;;;;;;;;;;11.20;99.90;;;;;;5009827;28;19913;-66
2022/12/26 15:11:12;;;;;;;;;;;11.20;99.90;;;;;;5014412;28;20440;-67
2022/12/26 15:13:41;;;;;;;;;;;11.30;99.90;;;;;;5010055;28;19918;-67
2022/12/26 15:16:25;;;;;;;;;;;11.20;99.90;;;;;;5012236;28;19917;-68
2022/12/26 15:19:05;;;;;;;;;;;11.30;99.90;;;;;;5002149;28;19997;-67
2022/12/26 15:22:00;;;;;;;;;;;11.30;99.90;;;;;;5011706;28;19913;-67
2022/12/26 15:24:44;;;;;;;;;;;11.20;99.90;;;;;;5009527;28;20293;-68
2022/12/26 15:27:13;;;;;;;;;;;11.30;99.90;;;;;;5006683;28;19918;-67
2022/12/26 15:29:41;;;;;;;;;;;11.30;99.90;;;;;;5003828;28;19917;-67
2022/12/26 15:32:07;;;;;;;;;;;11.30;99.90;;;;;;5005218;28;19921;-68
2022/12/26 15:34:32;;;;;;;;;;;11.30;99.90;;;;;;5002468;28;20561;-68
2022/12/26 15:37:07;;;;;;;;;;;11.40;99.90;;;;;;5008571;28;19972;-67
2022/12/26 15:39:32;;;;;;;;;;;11.30;99.90;;;;;;5007309;28;19937;-68
2022/12/26 15:42:10;;;;;;;;;;;11.30;99.90;;;;;;5015384;28;19967;-68
2022/12/26 15:44:36;;;;;;;;;;;11.30;99.90;;;;;;5008898;28;20321;-66
2022/12/26 15:47:22;;;;;;;;;;;11.30;99.90;;;;;;5010027;28;19914;-66
2022/12/26 15:50:06;;;;;;;;;;;11.30;99.90;;;;;;5003539;28;19956;-68
2022/12/26 15:52:44;;;;;;;;;;;11.30;99.90;;;;;;5005946;28;19926;-67
2022/12/26 15:55:28;;;;;;;;;;;11.30;99.90;;;;;;5002985;28;19950;-66
2022/12/26 15:58:01;;;;;;;;;;;11.30;99.90;;;;;;4996528;28;19917;-67
2022/12/26 16:00:31;;;;;;;;;;;11.30;99.90;;;;;;5016726;28;19913;-69
2022/12/26 16:02:59;;;;;;;;;;;11.20;99.90;;;;;;5008447;28;20372;-66
2022/12/26 16:05:43;;;;;;;;;;;11.20;99.90;;;;;;5011386;28;19917;-69
2022/12/26 16:08:27;;;;;;;;;;;11.30;99.90;;;;;;5005370;28;19987;-68
2022/12/26 16:11:12;;;;;;;;;;;11.30;99.90;;;;;;5016092;28;19921;-67
2022/12/26 16:13:47;;;;;;;;;;;11.30;99.90;;;;;;5002640;28;19926;-69
2022/12/26 16:16:21;;;;;;;;;;;11.30;99.90;;;;;;5005951;28;20308;-68
2022/12/26 16:18:47;;;;;;;;;;;11.30;99.90;;;;;;5008136;28;20387;-69
2022/12/26 16:23:58;;;;;;;;;;;11.30;99.90;;;;;;5013367;28;19920;-69
2022/12/26 16:26:26;;;;;;;;;;;11.30;99.90;;;;;;5012521;28;20281;-68
2022/12/26 16:28:52;;;;;;;;;;;11.30;99.90;;;;;;5005683;28;20000;-68
2022/12/26 16:31:27;;;;;;;;;;;11.30;99.90;;;;;;5003943;28;19944;-63
2022/12/26 16:33:55;;;;;;;;;;;11.30;99.90;;;;;;5005709;28;19913;-67
2022/12/26 16:36:22;;;;;;;;;;;11.30;99.90;;;;;;5006190;28;19914;-63
2022/12/26 16:38:48;;;;;;;;;;;11.20;99.90;;;;;;5004364;28;20408;-67
2022/12/26 16:41:18;;;;;;;;;;;11.20;99.90;;;;;;5008912;28;19960;-64
2022/12/26 16:43:44;;;;;;;;;;;11.20;99.90;;;;;;5017666;28;20288;-67
2022/12/26 16:46:11;;;;;;;;;;;11.20;99.90;;;;;;5000217;28;19921;-66